Hickory, Kentucky
Current Conditions -  °F | °C
As of 2:15 AM on Monday 24 Nov 2014 (Local Time) from KM25 Reporting Station
Overcast Overcast  
Wind Chill: 63°   Ceiling: 2500
Heat Index: 63°   Visibility: 10mi
Dew Point: 55°   Wind: 18mph
Humidity: 77%   Direction: 210°SSW
Pressure: 29.35"   Gusts: 32mph
Location:  36.82°N, 88.65°W
Report Text: KM25 240815Z AUTO 21016G28KT 10SM OVC025 17/13 A2935 RMK AO2
Loading
Personal Weather Stations






























Interactive Weather Map New forecast layout! Learn more

10-Day Weather Forecast

Advertisements
Track Severe Weather on mobile